createdAt,value
2023-04-18T00:43:43.326Z,18.88
2023-04-18T00:46:57.784Z,18.88
2023-04-18T00:49:30.510Z,18.86
2023-04-18T00:52:02.767Z,18.85
2023-04-18T00:54:35.026Z,18.84
2023-04-18T00:57:08.149Z,18.84
2023-04-18T00:59:40.681Z,18.83
2023-04-18T01:02:13.354Z,18.83
2023-04-18T01:04:47.658Z,18.81
2023-04-18T01:07:19.839Z,18.81
2023-04-18T01:09:57.625Z,18.80
2023-04-18T01:12:29.979Z,18.79
2023-04-18T01:15:03.920Z,18.79
2023-04-18T01:17:36.105Z,18.78
2023-04-18T01:20:08.967Z,18.77
2023-04-18T01:22:41.257Z,18.77
2023-04-18T01:25:13.997Z,18.76
2023-04-18T01:27:46.507Z,18.74
2023-04-18T01:30:18.712Z,18.74
2023-04-18T01:32:51.146Z,18.73
2023-04-18T01:35:23.325Z,18.73
2023-04-18T01:37:55.983Z,18.72
2023-04-18T01:40:28.211Z,18.71
2023-04-18T01:43:00.649Z,18.70
2023-04-18T01:45:32.890Z,18.70
2023-04-18T01:48:05.803Z,18.70
2023-04-18T01:50:38.450Z,18.68
2023-04-18T01:53:10.691Z,18.67
2023-04-18T01:55:42.820Z,18.68
2023-04-18T01:58:16.291Z,18.66
2023-04-18T02:00:48.756Z,18.67
2023-04-18T02:03:22.252Z,18.65
2023-04-18T02:05:54.681Z,18.64
2023-04-18T02:08:26.768Z,18.64
2023-04-18T02:10:59.384Z,18.63
2023-04-18T02:13:31.611Z,18.63
2023-04-18T02:16:04.018Z,18.61
2023-04-18T02:18:37.160Z,18.60
2023-04-18T02:21:11.251Z,18.60
2023-04-18T02:23:43.810Z,18.59
2023-04-18T02:26:15.870Z,18.58
2023-04-18T02:28:47.932Z,18.56
2023-04-18T02:31:22.435Z,18.56
2023-04-18T02:33:54.572Z,18.56
2023-04-18T02:36:28.251Z,18.55
2023-04-18T02:39:00.552Z,18.54
2023-04-18T02:41:34.731Z,18.54
2023-04-18T02:44:08.178Z,18.53
2023-04-18T02:46:43.454Z,18.52
2023-04-18T02:49:18.478Z,18.52
2023-04-18T02:51:57.477Z,18.50
2023-04-18T02:54:29.780Z,18.48
2023-04-18T02:57:09.654Z,18.48
2023-04-18T03:00:00.851Z,18.47
2023-04-18T03:03:12.972Z,18.45
2023-04-18T03:05:56.263Z,18.45
2023-04-18T03:08:28.507Z,18.45
2023-04-18T03:11:01.720Z,18.45
2023-04-18T03:13:35.514Z,18.41
2023-04-18T03:16:07.724Z,18.42
2023-04-18T03:18:40.296Z,18.40
2023-04-18T03:21:13.151Z,18.39
2023-04-18T03:23:47.954Z,18.39
2023-04-18T03:26:20.853Z,18.37
2023-04-18T03:28:53.014Z,18.37
2023-04-18T03:31:26.258Z,18.36
2023-04-18T03:33:58.404Z,18.36
2023-04-18T03:36:31.465Z,18.33
2023-04-18T03:39:04.062Z,18.34
2023-04-18T03:41:36.294Z,18.32
2023-04-18T03:44:11.716Z,18.31
2023-04-18T03:46:48.413Z,18.31
2023-04-18T03:49:20.662Z,18.29
2023-04-18T03:51:54.005Z,18.29
2023-04-18T03:54:26.241Z,18.28
2023-04-18T03:56:59.456Z,18.28
2023-04-18T03:59:34.449Z,18.27
2023-04-18T04:02:06.547Z,18.25
2023-04-18T04:04:40.028Z,18.24
2023-04-18T04:07:12.363Z,18.24
2023-04-18T04:09:44.483Z,18.23
2023-04-18T04:12:16.900Z,18.22
2023-04-18T04:14:49.219Z,18.21
2023-04-18T04:17:22.108Z,18.21
2023-04-18T04:19:56.896Z,18.19
2023-04-18T04:22:29.052Z,18.19
2023-04-18T04:25:02.732Z,18.18
2023-04-18T04:27:42.921Z,18.17
2023-04-18T04:30:17.249Z,18.16
2023-04-18T04:32:51.157Z,18.15
2023-04-18T04:35:23.511Z,18.14
2023-04-18T04:37:56.062Z,18.12
2023-04-18T04:40:35.873Z,18.12
2023-04-18T04:43:20.595Z,18.10
2023-04-18T04:45:53.638Z,18.09
2023-04-18T04:48:28.663Z,18.08
2023-04-18T04:51:01.316Z,18.06
2023-04-18T04:53:33.763Z,18.07
2023-04-18T04:56:07.819Z,18.05
2023-04-18T04:58:40.555Z,18.04
2023-04-18T05:01:24.362Z,18.03
2023-04-18T05:03:57.382Z,18.03
2023-04-18T05:06:29.521Z,18.00
2023-04-18T05:09:02.073Z,18.00
2023-04-18T05:11:34.210Z,17.99
2023-04-18T05:14:06.242Z,17.99
2023-04-18T05:16:38.437Z,17.98
2023-04-18T05:19:11.035Z,17.96
2023-04-18T05:21:43.175Z,17.95
2023-04-18T05:24:15.547Z,17.95
2023-04-18T05:26:47.885Z,17.94
2023-04-18T05:29:20.004Z,17.92
2023-04-18T05:31:53.517Z,17.92
2023-04-18T05:34:25.674Z,17.91
2023-04-18T05:36:57.878Z,17.90
2023-04-18T05:39:29.967Z,17.89
2023-04-18T05:42:02.901Z,17.88
2023-04-18T05:44:36.118Z,17.88
2023-04-18T05:47:08.326Z,17.87
2023-04-18T05:49:40.527Z,17.87
2023-04-18T05:52:12.622Z,17.85
2023-04-18T05:54:44.787Z,17.86
2023-04-18T05:57:16.964Z,17.84
2023-04-18T05:59:49.026Z,17.85
2023-04-18T06:02:21.215Z,17.84
2023-04-18T06:04:54.260Z,17.84
2023-04-18T06:07:26.561Z,17.84
2023-04-18T06:09:58.741Z,17.83
2023-04-18T06:12:31.159Z,17.82
2023-04-18T06:15:05.537Z,17.82
2023-04-18T06:17:38.284Z,17.82
2023-04-18T06:20:13.554Z,17.82
2023-04-18T06:22:45.629Z,17.82
2023-04-18T06:25:18.098Z,17.81
2023-04-18T06:27:50.203Z,17.82
2023-04-18T06:30:22.411Z,17.81
2023-04-18T06:32:54.725Z,17.82
2023-04-18T06:35:30.988Z,17.82
2023-04-18T06:38:03.525Z,17.81
2023-04-18T06:40:38.769Z,17.83
2023-04-18T06:43:11.228Z,17.82
2023-04-18T06:45:45.458Z,17.81
2023-04-18T06:48:17.749Z,17.82
2023-04-18T06:50:49.823Z,17.81
2023-04-18T06:53:22.278Z,17.82
2023-04-18T06:55:54.492Z,17.83
2023-04-18T06:58:26.791Z,17.83
2023-04-18T07:00:58.924Z,17.84
2023-04-18T07:03:31.469Z,17.85
2023-04-18T07:06:07.052Z,17.86
2023-04-18T07:08:40.644Z,17.86
2023-04-18T07:11:19.726Z,17.87
2023-04-18T07:13:51.892Z,17.87
2023-04-18T07:16:24.116Z,17.88
2023-04-18T07:18:56.298Z,17.88
2023-04-18T07:21:28.574Z,17.87
2023-04-18T07:24:00.698Z,17.87
2023-04-18T07:26:33.230Z,17.88
2023-04-18T07:29:05.478Z,17.89
2023-04-18T07:31:37.579Z,17.88
2023-04-18T07:34:10.194Z,17.89
2023-04-18T07:36:44.927Z,17.89
2023-04-18T07:39:17.960Z,17.90
2023-04-18T07:41:50.178Z,17.91
2023-04-18T07:44:25.279Z,17.91
2023-04-18T07:46:58.419Z,17.92
2023-04-18T07:49:31.046Z,17.94
2023-04-18T07:52:03.487Z,17.94
2023-04-18T07:54:35.641Z,17.94
2023-04-18T07:57:08.122Z,17.95
2023-04-18T07:59:41.213Z,17.95
2023-04-18T08:02:14.163Z,17.95
2023-04-18T08:04:47.381Z,17.96
2023-04-18T08:07:20.342Z,17.97
2023-04-18T08:09:52.963Z,17.96
2023-04-18T08:12:27.283Z,17.97
2023-04-18T08:15:05.628Z,17.98
2023-04-18T08:17:46.261Z,17.99
2023-04-18T08:20:26.544Z,18.02
2023-04-18T08:41:28.813Z,18.14
2023-04-18T08:44:01.840Z,18.13
2023-04-18T08:46:43.157Z,18.11
2023-04-18T09:04:12.449Z,18.07
2023-04-18T09:19:46.656Z,18.19
2023-04-18T09:30:05.709Z,18.27
2023-04-18T09:32:38.951Z,18.29
2023-04-18T09:39:16.100Z,18.34
2023-04-18T09:42:32.063Z,18.36
2023-04-18T09:45:10.547Z,18.38
2023-04-18T09:47:46.878Z,18.40
2023-04-18T09:50:33.371Z,18.41
2023-04-18T09:53:48.009Z,18.45
2023-04-18T09:56:25.664Z,18.46
2023-04-18T09:59:07.840Z,18.47
2023-04-18T10:01:41.176Z,18.47
2023-04-18T10:04:21.095Z,18.46
2023-04-18T10:06:57.131Z,18.44
2023-04-18T10:09:31.627Z,18.45
2023-04-18T10:12:18.761Z,18.43
2023-04-18T10:14:53.852Z,18.43
2023-04-18T10:17:29.426Z,18.44
2023-04-18T10:20:09.576Z,18.46
2023-04-18T10:22:41.750Z,18.46
2023-04-18T10:25:39.116Z,18.49
2023-04-18T10:28:17.149Z,18.50
2023-04-18T10:41:58.998Z,18.62
2023-04-18T10:44:33.728Z,18.65
2023-04-18T10:47:08.212Z,18.67
2023-04-18T10:49:53.021Z,18.69
2023-04-18T10:52:25.654Z,18.71
2023-04-18T10:55:02.194Z,18.74
2023-04-18T10:57:40.657Z,18.75
2023-04-18T11:00:14.779Z,18.77
2023-04-18T11:02:56.178Z,18.78
2023-04-18T11:05:29.365Z,18.80
2023-04-18T11:08:05.456Z,18.81
2023-04-18T11:10:38.878Z,18.83
2023-04-18T11:13:13.258Z,18.84
2023-04-18T11:15:45.412Z,18.85
2023-04-18T11:18:21.893Z,18.87
2023-04-18T11:20:57.727Z,18.87
2023-04-18T11:23:33.010Z,18.90
2023-04-18T11:26:22.782Z,18.91
2023-04-18T13:19:52.810Z,18.91
2023-04-18T13:22:40.845Z,18.93
2023-04-18T13:54:46.252Z,19.01
2023-04-18T14:05:28.825Z,19.00
2023-04-18T14:28:38.269Z,19.00
2023-04-18T14:31:10.576Z,19.00
2023-04-18T14:33:43.784Z,19.00
2023-04-18T14:36:17.233Z,18.98
2023-04-18T14:38:50.225Z,18.98
2023-04-18T14:41:22.394Z,18.96
2023-04-18T14:43:54.682Z,18.96
2023-04-18T14:46:28.479Z,18.95
2023-04-18T14:49:00.778Z,18.95
2023-04-18T14:51:33.096Z,18.95
2023-04-18T14:54:06.236Z,18.94
2023-04-18T14:56:38.551Z,18.94
2023-04-18T14:59:15.561Z,18.93
2023-04-18T15:01:48.826Z,18.94
2023-04-18T15:04:24.162Z,18.93
2023-04-18T15:06:56.657Z,18.94
2023-04-18T15:09:30.832Z,18.93
2023-04-18T15:12:02.906Z,18.92
2023-04-18T15:14:35.932Z,18.93
2023-04-18T15:17:07.999Z,18.92
2023-04-18T15:19:42.607Z,18.92
2023-04-18T15:22:14.937Z,18.93
2023-04-18T15:24:47.514Z,18.94
2023-04-18T15:27:19.810Z,18.93
2023-04-18T15:29:52.269Z,18.95
2023-04-18T15:32:26.005Z,18.96
2023-04-18T15:34:58.334Z,18.96
2023-04-18T15:37:30.549Z,18.98
2023-04-18T15:40:03.769Z,18.99
2023-04-18T15:42:38.873Z,18.98
2023-04-18T15:45:16.626Z,18.97
2023-04-18T15:47:51.669Z,18.98
2023-04-18T15:50:23.764Z,18.98
2023-04-18T15:52:57.038Z,18.98
2023-04-18T15:55:29.986Z,18.98
2023-04-18T16:05:28.448Z,18.95
2023-04-18T16:08:02.657Z,18.94
2023-04-18T16:24:51.017Z,18.88
2023-04-18T16:27:26.313Z,18.87
2023-04-18T16:30:01.875Z,18.87
2023-04-18T16:32:36.752Z,18.87
2023-04-18T16:35:12.484Z,18.86
2023-04-18T16:37:47.019Z,18.85
2023-04-18T16:40:21.961Z,18.84
2023-04-18T16:42:56.318Z,18.83
2023-04-18T17:05:01.824Z,18.77
2023-04-18T17:17:53.301Z,18.78
2023-04-18T17:20:28.409Z,18.77
2023-04-18T17:23:00.649Z,18.78
2023-04-18T17:25:34.652Z,18.77
2023-04-18T17:28:10.267Z,18.79
2023-04-18T17:30:45.350Z,18.81
2023-04-18T17:33:17.598Z,18.83
2023-04-18T17:35:51.245Z,18.85
2023-04-18T17:38:23.884Z,18.88
2023-04-18T17:41:01.076Z,18.90
2023-04-18T17:43:42.841Z,18.91
2023-04-18T17:46:28.213Z,18.91
2023-04-18T17:49:06.237Z,18.91
2023-04-18T17:51:38.620Z,18.91
2023-04-18T17:54:13.135Z,18.91
2023-04-18T17:56:46.336Z,18.89
2023-04-18T17:59:26.573Z,18.88
2023-04-18T18:01:59.972Z,18.87
2023-04-18T18:07:58.996Z,18.84
2023-04-18T21:12:16.544Z,17.97
2023-04-18T21:14:49.849Z,17.97
2023-04-18T21:17:23.451Z,17.97
2023-04-18T21:35:11.662Z,17.96
2023-04-18T22:39:21.046Z,17.83
2023-04-18T22:41:53.495Z,17.82
2023-04-18T22:44:26.794Z,17.82
2023-04-18T22:47:01.014Z,17.81
2023-04-18T22:49:34.710Z,17.80
2023-04-18T22:52:10.110Z,17.80
2023-04-18T22:54:44.850Z,17.80
2023-04-18T22:57:18.372Z,17.79
2023-04-18T22:59:51.581Z,17.77
2023-04-18T23:02:24.693Z,17.76
2023-04-18T23:04:58.421Z,17.76
2023-04-18T23:07:32.306Z,17.75
2023-04-18T23:10:06.512Z,17.75
2023-04-18T23:12:43.575Z,17.74
2023-04-18T23:15:18.282Z,17.73
2023-04-18T23:17:54.305Z,17.73
2023-04-18T23:20:26.803Z,17.72
2023-04-18T23:23:00.729Z,17.71
2023-04-18T23:26:11.979Z,17.71
2023-04-18T23:29:09.293Z,17.70
2023-04-18T23:31:55.237Z,17.68
2023-04-18T23:34:27.593Z,17.68
2023-04-18T23:52:34.752Z,17.63
2023-04-18T23:55:07.535Z,17.63
2023-04-18T23:57:39.726Z,17.62
